Time;durP1;ratioP1;P1;durP2;ratioP2;P2;SDS_P1;SDS_P2;PMS_P1;PMS_P2;Temp;Humidity;BMP_temperature;BMP_pressure;BME280_temperature;BME280_humidity;BME280_pressure;Samples;Min_cycle;Max_cycle;Signal;HPM_P1;HPM_P2
2022/01/10 00:01:07;;;;;;;15.77;5.47;;;4.50;99.90;;;;;;5052344;28;20025;-53
2022/01/10 00:03:33;;;;;;;23.05;6.28;;;4.50;99.90;;;;;;5052249;28;20013;-54
2022/01/10 00:05:59;;;;;;;29.85;5.47;;;4.50;99.90;;;;;;5052467;28;20080;-55
2022/01/10 00:08:24;;;;;;;28.42;5.85;;;4.50;99.90;;;;;;5050268;28;20175;-52
2022/01/10 00:10:51;;;;;;;23.88;6.28;;;4.50;99.90;;;;;;5052304;28;20078;-52
2022/01/10 00:13:17;;;;;;;19.25;5.85;;;4.60;99.90;;;;;;5052291;28;20075;-54
2022/01/10 00:15:44;;;;;;;25.92;5.65;;;4.50;99.90;;;;;;5052307;28;20477;-54
2022/01/10 00:18:10;;;;;;;20.67;4.97;;;4.50;99.90;;;;;;5052408;28;20017;-51
2022/01/10 00:20:36;;;;;;;19.08;5.55;;;4.50;99.90;;;;;;5034229;28;20021;-56
2022/01/10 00:23:02;;;;;;;15.10;5.05;;;4.50;99.90;;;;;;5055077;28;20017;-54
2022/01/10 00:25:28;;;;;;;17.08;4.82;;;4.50;99.90;;;;;;5055268;28;20105;-54
2022/01/10 00:27:54;;;;;;;20.63;5.55;;;4.50;99.90;;;;;;5055119;28;20141;-54
2022/01/10 00:30:22;;;;;;;27.48;5.40;;;4.60;99.90;;;;;;5055547;28;20059;-51
2022/01/10 00:32:48;;;;;;;17.65;4.57;;;4.60;99.90;;;;;;5056298;28;20159;-51
2022/01/10 00:35:13;;;;;;;15.95;4.82;;;4.60;99.90;;;;;;5056431;28;20079;-53
2022/01/10 00:37:42;;;;;;;25.70;5.03;;;4.60;99.90;;;;;;5055957;28;20029;-51
2022/01/10 00:40:09;;;;;;;12.68;5.10;;;4.60;99.90;;;;;;5038768;28;20021;-51
2022/01/10 00:42:36;;;;;;;27.73;5.25;;;4.60;99.90;;;;;;5055754;28;20021;-54
2022/01/10 00:45:12;;;;;;;13.57;4.68;;;4.60;99.90;;;;;;5056222;28;20087;-54
2022/01/10 00:47:38;;;;;;;17.20;4.38;;;4.60;99.90;;;;;;5055874;28;20388;-55
2022/01/10 00:50:04;;;;;;;16.15;5.50;;;4.60;99.90;;;;;;5055612;28;20073;-56
2022/01/10 00:52:29;;;;;;;25.35;5.03;;;4.60;99.90;;;;;;5055959;28;20068;-53
2022/01/10 00:54:55;;;;;;;15.52;4.05;;;4.60;99.90;;;;;;5056349;28;20033;-53
2022/01/10 00:57:20;;;;;;;16.80;4.30;;;4.70;99.90;;;;;;5055672;28;20449;-52
2022/01/10 00:59:46;;;;;;;22.70;4.85;;;4.70;99.90;;;;;;5056045;28;20033;-56
2022/01/10 01:02:11;;;;;;;18.80;4.97;;;4.70;99.90;;;;;;5055449;28;20078;-52
2022/01/10 01:04:37;;;;;;;22.85;5.32;;;4.70;99.90;;;;;;5055478;28;20033;-50
2022/01/10 01:07:03;;;;;;;18.70;5.10;;;4.70;99.90;;;;;;5055319;28;20025;-52
2022/01/10 01:09:30;;;;;;;22.77;4.82;;;4.70;99.90;;;;;;5055834;28;20021;-56
2022/01/10 01:12:14;;;;;;;15.55;4.47;;;4.70;99.90;;;;;;5055227;28;20505;-54
2022/01/10 01:17:59;;;;;;;26.42;5.15;;;4.70;99.90;;;;;;5055368;28;20025;-55
2022/01/10 01:25:08;;;;;;;21.48;6.18;;;4.70;99.90;;;;;;5055634;28;20056;-54
2022/01/10 01:27:34;;;;;;;16.52;4.50;;;4.60;99.90;;;;;;5055112;28;20025;-57
2022/01/10 01:30:00;;;;;;;16.50;5.18;;;4.60;99.90;;;;;;5055319;28;20028;-52
2022/01/10 01:32:25;;;;;;;15.90;5.80;;;4.60;99.90;;;;;;5054897;28;20100;-52
2022/01/10 01:34:55;;;;;;;18.65;5.10;;;4.60;99.90;;;;;;5053923;28;20032;-50
2022/01/10 01:37:21;;;;;;;18.73;6.15;;;4.60;99.90;;;;;;5055040;28;20039;-52
2022/01/10 01:39:47;;;;;;;25.67;5.57;;;4.60;99.90;;;;;;5054691;28;20025;-54
2022/01/10 01:42:34;;;;;;;17.52;5.63;;;4.60;99.90;;;;;;5054872;28;20029;-53
2022/01/10 01:45:02;;;;;;;27.65;5.82;;;4.50;99.90;;;;;;5054555;28;20071;-54
2022/01/10 01:47:27;;;;;;;20.98;5.05;;;4.60;99.90;;;;;;5054519;28;20017;-52
2022/01/10 01:49:53;;;;;;;16.33;5.32;;;4.60;99.90;;;;;;5055032;28;20017;-54
2022/01/10 01:52:18;;;;;;;24.63;6.22;;;4.60;99.90;;;;;;5054443;28;20024;-55
2022/01/10 01:54:44;;;;;;;18.95;5.35;;;4.60;99.90;;;;;;5054388;28;20074;-52
2022/01/10 01:57:09;;;;;;;20.38;6.28;;;4.60;99.90;;;;;;5054233;28;20021;-50
2022/01/10 01:59:36;;;;;;;21.80;5.38;;;4.50;99.90;;;;;;5054380;28;20025;-50
2022/01/10 02:02:01;;;;;;;22.08;5.30;;;4.50;99.90;;;;;;5054090;28;20033;-50
2022/01/10 02:04:27;;;;;;;17.40;5.18;;;4.50;99.90;;;;;;5054075;28;20048;-52
2022/01/10 02:06:52;;;;;;;21.08;5.80;;;4.50;99.90;;;;;;5054388;28;20474;-49
2022/01/10 02:09:18;;;;;;;20.48;5.43;;;4.50;99.90;;;;;;5054322;28;20576;-51
2022/01/10 02:11:44;;;;;;;27.50;5.68;;;4.60;99.90;;;;;;5036171;28;20444;-54
2022/01/10 02:14:09;;;;;;;24.80;6.00;;;4.60;99.90;;;;;;5054116;28;20104;-52
2022/01/10 02:16:44;;;;;;;16.65;5.35;;;4.60;99.90;;;;;;5054225;28;20095;-54
2022/01/10 02:19:11;;;;;;;27.58;5.15;;;4.50;99.90;;;;;;5054476;28;20069;-53
2022/01/10 02:21:37;;;;;;;21.58;5.55;;;4.60;99.90;;;;;;5055022;28;20381;-54
2022/01/10 02:24:05;;;;;;;19.63;5.85;;;4.60;99.90;;;;;;5054080;28;20032;-51
2022/01/10 02:26:31;;;;;;;21.85;5.45;;;4.60;99.90;;;;;;5053898;28;20048;-54
2022/01/10 02:28:56;;;;;;;19.08;6.20;;;4.60;99.90;;;;;;5054128;28;20025;-51
2022/01/10 02:31:22;;;;;;;24.35;5.15;;;4.60;99.90;;;;;;5054083;28;20033;-50
2022/01/10 02:33:51;;;;;;;30.60;6.18;;;4.60;99.90;;;;;;5053932;28;20117;-53
2022/01/10 02:36:24;;;;;;;20.08;6.78;;;4.60;99.90;;;;;;5053888;28;20028;-52
2022/01/10 02:38:52;;;;;;;25.55;6.03;;;4.60;99.90;;;;;;5054509;28;20409;-55
2022/01/10 02:41:44;;;;;;;24.48;6.63;;;4.60;99.90;;;;;;5053650;28;20094;-49
2022/01/10 02:44:15;;;;;;;16.27;5.03;;;4.60;99.90;;;;;;5048890;28;20103;-50
2022/01/10 02:46:40;;;;;;;;;;;4.60;99.90;;;;;;5053912;28;20021;-51
2022/01/10 02:49:24;;;;;;;15.77;4.72;;;4.60;99.90;;;;;;5053529;28;20288;-51
2022/01/10 02:51:51;;;;;;;21.33;6.50;;;4.60;99.90;;;;;;5053896;28;20086;-49
2022/01/10 02:54:16;;;;;;;21.30;5.80;;;4.60;99.90;;;;;;5053609;28;20032;-50
2022/01/10 02:56:51;;;;;;;18.02;5.78;;;4.60;99.90;;;;;;5053414;28;20393;-52
2022/01/10 02:59:17;;;;;;;24.67;5.93;;;4.60;99.90;;;;;;5053422;28;20029;-50
2022/01/10 03:01:43;;;;;;;16.95;5.82;;;4.70;99.90;;;;;;5053359;28;20033;-53
2022/01/10 03:04:09;;;;;;;26.33;5.75;;;4.60;99.90;;;;;;5053182;28;20489;-52
2022/01/10 03:06:36;;;;;;;19.33;6.57;;;4.60;99.90;;;;;;5053071;28;20033;-55
2022/01/10 03:09:05;;;;;;;24.40;6.25;;;4.60;99.90;;;;;;5053221;28;20025;-51
2022/01/10 03:11:33;;;;;;;17.67;5.82;;;4.60;99.90;;;;;;5053439;28;20457;-52
2022/01/10 03:13:59;;;;;;;22.77;6.47;;;4.60;99.90;;;;;;5035645;28;20021;-52
2022/01/10 03:16:25;;;;;;;20.30;5.68;;;4.60;99.90;;;;;;5053126;28;20053;-50
2022/01/10 03:18:50;;;;;;;23.73;4.97;;;4.60;99.90;;;;;;5053451;28;20055;-54
2022/01/10 03:21:19;;;;;;;23.90;5.93;;;4.60;99.90;;;;;;5053311;28;20520;-53
2022/01/10 03:23:45;;;;;;;22.45;7.07;;;4.60;99.90;;;;;;5053376;28;20442;-51
2022/01/10 03:26:11;;;;;;;23.55;6.80;;;4.70;99.90;;;;;;5053103;28;20039;-50
2022/01/10 03:28:37;;;;;;;20.65;6.05;;;4.70;99.90;;;;;;5052916;28;20052;-50
2022/01/10 03:31:03;;;;;;;19.77;5.45;;;4.70;99.90;;;;;;5053011;28;20086;-52
2022/01/10 03:33:28;;;;;;;21.90;6.20;;;4.70;99.90;;;;;;5053375;28;20048;-50
2022/01/10 03:35:54;;;;;;;27.13;5.85;;;4.70;99.90;;;;;;5054336;28;20079;-49
2022/01/10 03:38:20;;;;;;;14.77;5.75;;;4.70;99.90;;;;;;5053556;28;20024;-52
2022/01/10 03:40:46;;;;;;;29.20;7.25;;;4.70;99.90;;;;;;5053441;28;20025;-53
2022/01/10 03:43:11;;;;;;;31.75;6.65;;;4.70;99.90;;;;;;5053116;28;20091;-50
2022/01/10 03:45:37;;;;;;;28.25;7.30;;;4.70;99.90;;;;;;5052921;28;20497;-53
2022/01/10 03:48:03;;;;;;;20.38;5.60;;;4.60;99.90;;;;;;5087286;22;20105;-74
2022/01/10 03:50:29;;;;;;;21.75;5.95;;;4.60;99.90;;;;;;5104641;28;20027;-73
2022/01/10 03:52:54;;;;;;;28.88;6.57;;;4.60;99.90;;;;;;5090467;28;20027;-73
2022/01/10 03:55:20;;;;;;;26.15;6.60;;;4.60;99.90;;;;;;5094851;28;20032;-73
2022/01/10 03:57:45;;;;;;;21.48;5.68;;;4.60;99.90;;;;;;5097413;28;20093;-74
2022/01/10 04:00:13;;;;;;;31.42;8.50;;;4.60;99.90;;;;;;5099214;28;20479;-74
2022/01/10 04:02:40;;;;;;;28.33;7.15;;;4.60;99.90;;;;;;5099469;28;20541;-73
2022/01/10 04:05:06;;;;;;;28.85;6.00;;;4.70;99.90;;;;;;5098989;28;20104;-73
2022/01/10 04:07:31;;;;;;;26.80;6.18;;;4.70;99.90;;;;;;5098874;28;20020;-73
2022/01/10 04:09:57;;;;;;;25.80;6.80;;;4.70;99.90;;;;;;5098609;28;20024;-73
2022/01/10 04:12:24;;;;;;;23.90;6.60;;;4.70;99.90;;;;;;5098549;28;20047;-73
2022/01/10 04:14:50;;;;;;;24.50;6.55;;;4.70;99.90;;;;;;5098582;28;20020;-73
2022/01/10 04:17:15;;;;;;;24.33;7.10;;;4.70;99.90;;;;;;5098870;28;20103;-72
2022/01/10 04:19:41;;;;;;;20.48;6.18;;;4.70;99.90;;;;;;5098971;28;20020;-73
2022/01/10 04:22:07;;;;;;;21.23;6.38;;;4.70;99.90;;;;;;5099308;28;20039;-73
2022/01/10 04:24:32;;;;;;;28.40;6.95;;;4.70;99.90;;;;;;5080501;28;20114;-73
2022/01/10 04:26:58;;;;;;;17.67;6.80;;;4.70;99.90;;;;;;5098571;28;20094;-73
2022/01/10 04:29:24;;;;;;;29.45;6.70;;;4.70;99.90;;;;;;5098167;28;20036;-73
2022/01/10 04:31:49;;;;;;;24.13;6.05;;;4.70;99.90;;;;;;5098385;28;20024;-73
2022/01/10 04:34:16;;;;;;;23.23;6.43;;;4.60;99.90;;;;;;5098644;28;20020;-72
2022/01/10 04:36:43;;;;;;;20.85;6.00;;;4.60;99.90;;;;;;5098830;28;20039;-72
2022/01/10 04:39:08;;;;;;;22.75;7.00;;;4.60;99.90;;;;;;5099289;28;20079;-74
2022/01/10 04:41:34;;;;;;;29.13;6.78;;;4.50;99.90;;;;;;5098230;28;20015;-72
2022/01/10 04:44:00;;;;;;;23.13;6.38;;;4.50;99.90;;;;;;5098302;28;20025;-72
2022/01/10 04:46:25;;;;;;;27.15;6.80;;;4.50;99.90;;;;;;5079715;28;20445;-73
2022/01/10 04:48:51;;;;;;;22.85;7.28;;;4.50;99.90;;;;;;5079858;28;20196;-72
2022/01/10 04:51:17;;;;;;;27.15;5.95;;;4.50;99.90;;;;;;5098465;28;20023;-72
2022/01/10 04:53:49;;;;;;;22.02;7.00;;;4.50;99.90;;;;;;5081492;28;20023;-72
2022/01/10 04:56:16;;;;;;;29.00;6.55;;;4.50;99.90;;;;;;5081503;28;20024;-72
2022/01/10 04:58:42;;;;;;;32.15;8.02;;;4.50;99.90;;;;;;5101025;28;20107;-72
2022/01/10 05:01:09;;;;;;;28.10;5.88;;;4.50;99.90;;;;;;5084690;28;20032;-72
2022/01/10 05:03:34;;;;;;;32.92;7.47;;;4.50;99.90;;;;;;5100807;28;20031;-72
2022/01/10 05:06:00;;;;;;;20.70;6.55;;;4.50;99.90;;;;;;5097729;28;20024;-72
2022/01/10 05:08:26;;;;;;;38.72;6.80;;;4.50;99.90;;;;;;5097074;28;20469;-73
2022/01/10 05:10:52;;;;;;;34.85;6.75;;;4.40;99.90;;;;;;5097423;28;20031;-71
2022/01/10 05:13:20;;;;;;;23.65;6.60;;;4.40;99.90;;;;;;5098083;28;20461;-72
2022/01/10 05:15:47;;;;;;;26.02;7.30;;;4.50;99.90;;;;;;5079600;28;20028;-72
2022/01/10 05:18:13;;;;;;;20.20;6.95;;;4.40;99.90;;;;;;5098899;28;20020;-72
2022/01/10 05:20:39;;;;;;;27.15;7.20;;;4.40;99.90;;;;;;5099775;28;20035;-71
2022/01/10 05:23:05;;;;;;;21.50;6.40;;;4.40;99.90;;;;;;5098928;28;20024;-73
2022/01/10 05:25:32;;;;;;;28.17;7.50;;;4.40;99.90;;;;;;5097506;28;20107;-71
2022/01/10 05:27:58;;;;;;;38.72;7.93;;;4.40;99.90;;;;;;5078898;28;20028;-71
2022/01/10 05:30:23;;;;;;;24.67;7.15;;;4.40;99.90;;;;;;5097334;28;20491;-72
2022/01/10 05:32:49;;;;;;;25.90;6.35;;;4.30;99.90;;;;;;5079058;28;20020;-72
2022/01/10 05:35:14;;;;;;;31.38;8.18;;;4.30;99.90;;;;;;5098544;28;20099;-72
2022/01/10 05:37:40;;;;;;;28.25;7.13;;;4.30;99.90;;;;;;5079380;28;20111;-72
2022/01/10 05:40:06;;;;;;;27.65;7.75;;;4.30;99.90;;;;;;5097338;28;20031;-72
2022/01/10 05:42:31;;;;;;;28.42;6.80;;;4.30;99.90;;;;;;5078824;28;20028;-73
2022/01/10 05:44:57;;;;;;;30.17;8.52;;;4.30;99.90;;;;;;5097800;28;20032;-72
2022/01/10 05:47:22;;;;;;;26.77;8.40;;;4.30;99.90;;;;;;5097846;28;20114;-72
2022/01/10 05:49:49;;;;;;;36.22;8.60;;;4.30;99.90;;;;;;5082091;28;20028;-72
2022/01/10 05:52:15;;;;;;;26.63;6.78;;;4.30;99.90;;;;;;5113078;28;20065;-72
2022/01/10 05:54:40;;;;;;;23.08;6.50;;;4.30;99.90;;;;;;5085725;28;20020;-72
2022/01/10 05:57:06;;;;;;;22.27;7.18;;;4.30;99.90;;;;;;5078739;28;20035;-73
2022/01/10 05:59:32;;;;;;;32.00;7.55;;;4.40;99.90;;;;;;5097389;28;20025;-72
2022/01/10 06:01:58;;;;;;;25.67;6.97;;;4.30;99.90;;;;;;5096465;28;20105;-72
2022/01/10 06:04:24;;;;;;;26.75;8.20;;;4.40;99.90;;;;;;5096338;28;20023;-72
2022/01/10 06:06:49;;;;;;;25.08;7.55;;;4.30;99.90;;;;;;5096358;28;20024;-72
2022/01/10 06:09:15;;;;;;;27.27;8.10;;;4.30;99.90;;;;;;5095106;28;20024;-72
2022/01/10 06:11:41;;;;;;;22.65;7.30;;;4.30;99.90;;;;;;5095704;28;20031;-72
2022/01/10 06:14:07;;;;;;;22.02;7.70;;;4.30;99.90;;;;;;5089493;28;20036;-71
2022/01/10 06:16:34;;;;;;;30.30;8.05;;;4.30;99.90;;;;;;5092099;28;20024;-71
2022/01/10 06:18:59;;;;;;;27.15;7.88;;;4.30;99.90;;;;;;5088874;28;20474;-73
2022/01/10 06:21:25;;;;;;;30.27;7.47;;;4.30;99.90;;;;;;5083841;28;20016;-71
2022/01/10 06:23:50;;;;;;;21.63;7.63;;;4.30;99.90;;;;;;5089516;28;20066;-71
2022/01/10 06:26:16;;;;;;;29.50;7.15;;;4.20;99.90;;;;;;5096504;28;20116;-71
2022/01/10 06:28:42;;;;;;;24.02;8.48;;;4.30;99.90;;;;;;5095923;28;20388;-72
2022/01/10 06:31:07;;;;;;;31.92;8.02;;;4.20;99.90;;;;;;5095682;28;20070;-71
2022/01/10 06:33:34;;;;;;;23.83;7.40;;;4.20;99.90;;;;;;5094660;28;20095;-72
2022/01/10 06:35:59;;;;;;;28.95;9.65;;;4.20;99.90;;;;;;5095660;28;20028;-72
2022/01/10 06:38:25;;;;;;;27.38;8.05;;;4.20;99.90;;;;;;5096209;28;20525;-72
2022/01/10 06:40:50;;;;;;;21.50;8.45;;;4.10;99.90;;;;;;5098144;28;20470;-72
2022/01/10 06:43:16;;;;;;;23.15;8.15;;;4.20;99.90;;;;;;5098012;28;20481;-72
2022/01/10 06:45:41;;;;;;;28.23;7.65;;;4.20;99.90;;;;;;5077919;28;20472;-72
2022/01/10 06:48:07;;;;;;;23.45;8.10;;;4.10;99.90;;;;;;5077736;28;20453;-71
2022/01/10 06:50:33;;;;;;;27.98;9.05;;;4.10;99.90;;;;;;5077574;28;20388;-71
2022/01/10 06:52:58;;;;;;;32.40;8.70;;;4.10;99.90;;;;;;5096212;28;20375;-72
2022/01/10 06:55:24;;;;;;;19.75;8.80;;;4.10;99.90;;;;;;5078250;28;20170;-72
2022/01/10 06:57:49;;;;;;;31.02;8.63;;;4.10;99.90;;;;;;5096293;28;20032;-72
2022/01/10 07:00:15;;;;;;;27.55;8.98;;;4.00;99.90;;;;;;5096701;28;20021;-73
2022/01/10 07:02:43;;;;;;;20.85;7.97;;;4.00;99.90;;;;;;5098438;28;20101;-72
2022/01/10 07:05:09;;;;;;;30.52;8.90;;;4.00;99.90;;;;;;5079789;28;20020;-72
2022/01/10 07:07:34;;;;;;;27.27;8.80;;;3.90;99.90;;;;;;5097516;28;20058;-72
2022/01/10 07:10:00;;;;;;;31.95;8.90;;;3.90;99.90;;;;;;5095534;28;20404;-72
2022/01/10 07:12:25;;;;;;;22.40;9.13;;;3.90;99.90;;;;;;5094989;28;20020;-73
2022/01/10 07:14:51;;;;;;;29.02;9.38;;;3.80;99.90;;;;;;5095168;28;20032;-72
2022/01/10 07:17:16;;;;;;;26.85;8.73;;;3.80;99.90;;;;;;5095070;28;20039;-72
2022/01/10 07:19:42;;;;;;;27.60;9.90;;;3.80;99.90;;;;;;5095383;28;20078;-72
2022/01/10 07:22:07;;;;;;;25.00;8.77;;;3.80;99.90;;;;;;5095196;28;20024;-72
2022/01/10 07:24:33;;;;;;;24.15;8.70;;;3.80;99.90;;;;;;5095148;28;20035;-72
2022/01/10 07:26:59;;;;;;;33.42;9.10;;;3.80;99.90;;;;;;5095407;28;20023;-73
2022/01/10 07:29:24;;;;;;;46.60;9.82;;;3.80;99.90;;;;;;5094553;28;20492;-72
2022/01/10 07:31:50;;;;;;;26.58;10.98;;;3.80;99.90;;;;;;5095056;28;20032;-72
2022/01/10 07:34:16;;;;;;;32.75;9.75;;;3.80;99.90;;;;;;5095013;28;20017;-73
2022/01/10 07:36:43;;;;;;;33.35;9.63;;;3.80;99.90;;;;;;5076883;28;20055;-72
2022/01/10 07:39:10;;;;;;;41.13;10.48;;;3.80;99.90;;;;;;5095004;28;20024;-72
2022/01/10 07:41:36;;;;;;;27.92;9.45;;;3.90;99.90;;;;;;5094975;28;20050;-72
2022/01/10 07:44:02;;;;;;;35.13;10.48;;;3.90;99.90;;;;;;5094797;28;20031;-72
2022/01/10 07:46:27;;;;;;;28.45;8.60;;;3.90;99.90;;;;;;5094735;28;20028;-72
2022/01/10 07:48:54;;;;;;;30.45;10.60;;;3.90;99.90;;;;;;5094857;28;20035;-71
2022/01/10 07:51:21;;;;;;;24.40;8.02;;;3.90;99.90;;;;;;5106248;28;20020;-71
2022/01/10 07:53:47;;;;;;;32.60;8.98;;;3.90;99.90;;;;;;5102866;28;20032;-72
2022/01/10 07:56:13;;;;;;;35.53;9.77;;;3.90;99.90;;;;;;5094576;28;20434;-72
2022/01/10 07:58:38;;;;;;;32.05;9.80;;;3.80;99.90;;;;;;5094612;28;20020;-72
2022/01/10 08:01:04;;;;;;;27.00;9.70;;;3.80;99.90;;;;;;5076330;28;20024;-72
2022/01/10 08:03:30;;;;;;;29.50;9.93;;;3.80;99.90;;;;;;5095203;28;20040;-71
2022/01/10 08:05:55;;;;;;;30.48;9.25;;;3.90;99.90;;;;;;5076176;28;20381;-72
2022/01/10 08:08:21;;;;;;;30.98;9.70;;;3.90;99.90;;;;;;5094951;28;20096;-72
2022/01/10 08:10:47;;;;;;;31.67;10.43;;;3.80;99.90;;;;;;5094678;28;20028;-72
2022/01/10 08:13:12;;;;;;;31.88;11.05;;;3.80;99.90;;;;;;5094555;28;20025;-73
2022/01/10 08:15:38;;;;;;;37.72;9.95;;;3.80;99.90;;;;;;5094087;28;20365;-73
2022/01/10 08:18:05;;;;;;;31.38;9.45;;;3.80;99.90;;;;;;5076237;28;20024;-73
2022/01/10 08:20:42;;;;;;;34.45;9.77;;;3.80;99.90;;;;;;5095128;28;20043;-73
2022/01/10 08:23:08;;;;;;;27.30;9.93;;;3.80;99.90;;;;;;5075819;28;20112;-73
2022/01/10 08:25:34;;;;;;;22.42;8.27;;;3.80;99.90;;;;;;5094625;28;20059;-72
2022/01/10 08:27:59;;;;;;;25.83;9.00;;;3.70;99.90;;;;;;5094781;28;20024;-73
2022/01/10 08:30:25;;;;;;;42.92;9.63;;;3.70;99.90;;;;;;5094534;28;20020;-73
2022/01/10 08:32:51;;;;;;;34.20;12.13;;;3.80;99.90;;;;;;5094619;28;20024;-73
2022/01/10 08:35:19;;;;;;;35.78;11.10;;;3.80;99.90;;;;;;5076404;28;20036;-73
2022/01/10 08:37:46;;;;;;;33.45;10.70;;;3.80;99.90;;;;;;5094588;28;20028;-72
2022/01/10 08:40:12;;;;;;;34.78;11.05;;;3.80;99.90;;;;;;5094685;28;20055;-72
2022/01/10 08:42:38;;;;;;;25.55;10.02;;;3.90;99.90;;;;;;5095259;28;20032;-73
2022/01/10 08:45:05;;;;;;;25.75;9.75;;;3.80;99.90;;;;;;5098738;28;20027;-73
2022/01/10 08:47:31;;;;;;;31.60;11.07;;;3.80;99.90;;;;;;5098927;28;20107;-72
2022/01/10 08:49:56;;;;;;;33.22;12.02;;;3.80;99.90;;;;;;5098487;28;20052;-73
2022/01/10 08:52:22;;;;;;;21.17;7.82;;;3.90;99.90;;;;;;5099191;28;20035;-73
2022/01/10 08:54:49;;;;;;;29.50;11.50;;;4.10;99.90;;;;;;5100521;28;20412;-73
2022/01/10 08:57:15;;;;;;;34.00;10.13;;;4.30;99.90;;;;;;5101792;28;20022;-72
2022/01/10 08:59:41;;;;;;;34.17;11.25;;;4.20;99.90;;;;;;5101645;28;20028;-73
2022/01/10 09:02:07;;;;;;;32.15;12.35;;;4.20;99.90;;;;;;5103285;28;20028;-72
2022/01/10 09:04:33;;;;;;;38.22;12.35;;;4.20;99.90;;;;;;5104225;28;20050;-72
2022/01/10 09:07:00;;;;;;;27.15;11.77;;;4.20;99.90;;;;;;5102397;28;20106;-72
2022/01/10 09:09:26;;;;;;;44.10;11.80;;;4.20;99.90;;;;;;5098133;28;20016;-72
2022/01/10 09:11:52;;;;;;;33.00;11.40;;;4.30;99.90;;;;;;5097419;28;20020;-72
2022/01/10 09:14:18;;;;;;;27.80;10.85;;;4.30;99.90;;;;;;5097429;28;20028;-72
2022/01/10 09:16:44;;;;;;;33.75;10.70;;;4.30;99.90;;;;;;5097248;28;20024;-72
2022/01/10 09:19:10;;;;;;;26.60;10.15;;;4.30;99.90;;;;;;5097536;28;20028;-73
2022/01/10 09:21:35;;;;;;;30.33;11.13;;;4.20;99.90;;;;;;5098011;28;20024;-71
2022/01/10 09:24:01;;;;;;;34.55;11.02;;;4.20;99.90;;;;;;5097687;28;20028;-72
2022/01/10 09:26:27;;;;;;;45.13;12.75;;;4.20;99.90;;;;;;5097780;28;20102;-72
2022/01/10 09:28:54;;;;;;;39.92;12.55;;;4.20;99.90;;;;;;5079424;28;20385;-73
2022/01/10 09:31:21;;;;;;;33.65;12.38;;;4.30;99.90;;;;;;5079275;28;20532;-72
2022/01/10 09:33:52;;;;;;;31.77;11.93;;;4.30;99.90;;;;;;5097221;28;20073;-72
2022/01/10 09:36:19;;;;;;;38.60;13.00;;;4.30;99.90;;;;;;5098581;28;20020;-72
2022/01/10 09:38:44;;;;;;;33.67;12.50;;;4.30;99.90;;;;;;5098243;28;20032;-73
2022/01/10 09:41:10;;;;;;;31.58;12.82;;;4.30;99.90;;;;;;5097307;28;20081;-72
2022/01/10 09:43:37;;;;;;;32.20;11.80;;;4.30;99.90;;;;;;5078723;28;20028;-72
2022/01/10 09:46:03;;;;;;;22.75;11.38;;;4.30;99.90;;;;;;5097641;28;20050;-72
2022/01/10 09:48:28;;;;;;;26.90;11.13;;;4.30;99.90;;;;;;5103312;23;20123;-53
2022/01/10 09:50:54;;;;;;;38.40;13.85;;;4.40;99.90;;;;;;5074842;28;20513;-52
2022/01/10 09:53:21;;;;;;;35.90;12.27;;;4.40;99.90;;;;;;5074754;28;20021;-55
2022/01/10 09:55:48;;;;;;;37.78;12.75;;;4.40;99.90;;;;;;5073759;28;20062;-56
2022/01/10 09:58:14;;;;;;;29.63;12.18;;;4.50;99.90;;;;;;5074640;28;20031;-57
2022/01/10 10:00:40;;;;;;;39.55;12.65;;;4.50;99.90;;;;;;5074830;28;20094;-56
2022/01/10 10:03:06;;;;;;;37.88;13.23;;;4.60;99.90;;;;;;5075241;28;20048;-56
2022/01/10 10:05:32;;;;;;;35.63;12.38;;;4.70;99.90;;;;;;5073958;28;20466;-57
2022/01/10 10:08:00;;;;;;;38.67;12.48;;;4.80;99.90;;;;;;5074913;28;20021;-57
2022/01/10 10:10:28;;;;;;;42.97;13.50;;;4.80;99.90;;;;;;5073162;28;20048;-57
2022/01/10 10:12:54;;;;;;;31.27;11.73;;;4.90;99.90;;;;;;5074405;28;20090;-57
2022/01/10 10:15:26;;;;;;;40.75;13.13;;;4.80;99.90;;;;;;5074746;28;20024;-54
2022/01/10 10:17:52;;;;;;;45.38;11.52;;;4.90;99.90;;;;;;5074787;28;20052;-56
2022/01/10 10:20:21;;;;;;;30.63;11.05;;;5.50;99.90;;;;;;5072907;28;20040;-56
2022/01/10 10:22:49;;;;;;;38.53;12.73;;;5.60;99.90;;;;;;5074619;28;20093;-54
2022/01/10 10:25:15;;;;;;;41.85;12.80;;;5.40;99.90;;;;;;5074315;28;20057;-54
2022/01/10 10:27:44;;;;;;;40.35;12.40;;;5.30;99.90;;;;;;5074062;28;20346;-56
2022/01/10 10:30:22;;;;;;;35.55;8.80;;;5.20;99.90;;;;;;5074164;28;20472;-57
2022/01/10 10:32:50;;;;;;;29.00;8.75;;;5.30;99.90;;;;;;5073956;28;20035;-56
2022/01/10 10:35:16;;;;;;;29.65;9.52;;;5.30;99.90;;;;;;5073782;28;20434;-56
2022/01/10 10:37:44;;;;;;;23.13;7.60;;;5.30;99.90;;;;;;5072789;28;20033;-56
2022/01/10 10:40:14;;;;;;;29.70;11.02;;;5.30;99.90;;;;;;5073905;28;20043;-55
2022/01/10 10:42:41;;;;;;;33.70;10.18;;;5.30;99.90;;;;;;5074026;28;20032;-57
2022/01/10 10:45:09;;;;;;;37.75;11.98;;;5.20;99.90;;;;;;5073752;28;20031;-56
2022/01/10 10:47:36;;;;;;;28.65;11.27;;;5.20;99.90;;;;;;5074446;28;20060;-56
2022/01/10 10:50:06;;;;;;;34.95;12.15;;;5.30;99.90;;;;;;5073439;28;20465;-56
2022/01/10 10:52:34;;;;;;;36.20;12.98;;;5.30;99.90;;;;;;5073654;28;20021;-57
2022/01/10 10:55:14;;;;;;;33.58;10.73;;;5.30;99.90;;;;;;5073901;28;20470;-56
2022/01/10 10:57:42;;;;;;;35.15;11.52;;;5.40;99.90;;;;;;5073867;28;20036;-55
2022/01/10 11:00:12;;;;;;;37.55;11.55;;;5.50;99.90;;;;;;5073395;28;20067;-56
2022/01/10 11:02:38;;;;;;;31.60;9.85;;;5.60;99.90;;;;;;5073374;28;20029;-57
2022/01/10 11:05:06;;;;;;;37.15;11.82;;;5.70;99.90;;;;;;5073429;28;20025;-56
2022/01/10 11:07:34;;;;;;;40.55;12.15;;;5.70;99.90;;;;;;5072896;28;20017;-57
2022/01/10 11:10:09;;;;;;;32.38;10.63;;;5.70;99.90;;;;;;5073141;28;20035;-57
2022/01/10 11:12:40;;;;;;;32.67;11.50;;;5.70;99.90;;;;;;5072999;28;20032;-56
2022/01/10 11:15:08;;;;;;;36.65;10.80;;;5.70;99.90;;;;;;5073426;28;20021;-56
2022/01/10 11:17:34;;;;;;;27.20;10.88;;;5.70;99.90;;;;;;5073479;28;20571;-55
2022/01/10 11:20:20;;;;;;;26.40;10.20;;;5.70;99.90;;;;;;5071833;28;20032;-55
2022/01/10 11:22:56;;;;;;;33.30;12.18;;;5.70;99.90;;;;;;5071976;28;20127;-54
2022/01/10 11:25:29;;;;;;;34.65;11.45;;;5.80;99.90;;;;;;5073289;28;20040;-52
2022/01/10 11:28:00;;;;;;;33.35;12.43;;;5.80;99.90;;;;;;5073045;28;20025;-55
2022/01/10 11:30:32;;;;;;;32.42;12.82;;;5.90;99.90;;;;;;5071935;28;20054;-56
2022/01/10 11:33:16;;;;;;;33.90;11.85;;;5.90;99.90;;;;;;5071929;28;20532;-55
2022/01/10 11:35:44;;;;;;;42.30;11.40;;;6.00;99.90;;;;;;5073419;28;20115;-57
2022/01/10 11:38:25;;;;;;;35.45;11.32;;;6.10;99.90;;;;;;5072731;28;20156;-55
2022/01/10 11:41:14;;;;;;;33.33;12.80;;;6.10;99.90;;;;;;5072355;28;20030;-57
2022/01/10 11:43:43;;;;;;;44.88;11.45;;;6.00;99.90;;;;;;5072483;28;20093;-57
2022/01/10 11:46:13;;;;;;;34.58;11.00;;;6.10;99.90;;;;;;5072670;28;20025;-57
2022/01/10 11:48:47;;;;;;;26.70;11.07;;;6.10;99.90;;;;;;5073621;28;20406;-57
2022/01/10 11:51:15;;;;;;;25.73;10.63;;;6.10;99.90;;;;;;5073427;28;20051;-56
2022/01/10 11:53:42;;;;;;;35.92;12.32;;;6.20;99.90;;;;;;5058420;28;20097;-55
2022/01/10 11:56:20;;;;;;;34.75;12.25;;;6.40;99.90;;;;;;5064473;28;20049;-56
2022/01/10 11:59:07;;;;;;;28.85;10.88;;;6.50;99.90;;;;;;5073346;28;20055;-60
2022/01/10 12:01:35;;;;;;;27.77;12.57;;;6.60;99.90;;;;;;5059113;28;20020;-57
2022/01/10 12:04:02;;;;;;;27.60;13.00;;;6.70;99.90;;;;;;5062305;28;20098;-56
2022/01/10 12:06:27;;;;;;;40.63;12.95;;;6.90;99.90;;;;;;5066729;28;20028;-58
2022/01/10 12:08:57;;;;;;;40.40;13.10;;;6.90;99.90;;;;;;5055925;28;20021;-58
2022/01/10 12:11:24;;;;;;;38.10;12.80;;;7.00;99.90;;;;;;5067169;28;20049;-58
2022/01/10 12:13:52;;;;;;;36.65;13.07;;;7.00;99.90;;;;;;5061067;28;20025;-58
2022/01/10 12:16:18;;;;;;;33.80;13.63;;;7.00;99.90;;;;;;5059463;28;20029;-57
2022/01/10 12:18:44;;;;;;;42.92;14.73;;;7.00;99.90;;;;;;5070767;28;20031;-57
2022/01/10 12:21:09;;;;;;;39.22;14.05;;;6.90;99.90;;;;;;5059305;28;20020;-59
2022/01/10 12:23:35;;;;;;;33.47;13.98;;;6.90;99.90;;;;;;5075561;28;20147;-59
2022/01/10 12:26:01;;;;;;;42.15;14.48;;;6.80;99.90;;;;;;5065228;28;20028;-60
2022/01/10 12:28:28;;;;;;;30.40;13.32;;;6.80;99.90;;;;;;5056215;28;20021;-57
2022/01/10 12:30:54;;;;;;;34.10;12.82;;;6.80;99.90;;;;;;5056854;28;20518;-56
2022/01/10 12:33:20;;;;;;;38.92;12.82;;;6.80;99.90;;;;;;5075704;28;20028;-59
2022/01/10 12:35:46;;;;;;;34.80;11.85;;;6.80;99.90;;;;;;5066833;28;20028;-56
2022/01/10 12:38:12;;;;;;;37.05;12.07;;;6.80;99.90;;;;;;5067359;28;20036;-58
2022/01/10 12:40:38;;;;;;;33.17;11.60;;;6.90;99.90;;;;;;5075643;28;20028;-55
2022/01/10 12:43:04;;;;;;;24.98;10.63;;;6.80;99.90;;;;;;5059416;28;20056;-59
2022/01/10 12:45:33;;;;;;;32.92;11.30;;;6.80;99.90;;;;;;5069573;28;20025;-61
2022/01/10 12:47:59;;;;;;;38.78;12.05;;;6.90;99.90;;;;;;5066084;28;20105;-60
2022/01/10 12:50:25;;;;;;;25.27;11.15;;;7.00;99.90;;;;;;5076895;28;20068;-61